createdAt,value
2022-11-28T00:01:31.355Z,4.89
2022-11-28T00:03:58.329Z,4.57
2022-11-28T00:06:27.051Z,4.18
2022-11-28T00:08:55.204Z,4.22
2022-11-28T00:11:23.843Z,4.14
2022-11-28T00:13:52.179Z,4.23
2022-11-28T00:16:21.887Z,4.35
2022-11-28T00:18:53.489Z,4.17
2022-11-28T00:21:21.584Z,4.09
2022-11-28T00:23:49.634Z,4.08
2022-11-28T00:26:28.067Z,3.98
2022-11-28T00:28:56.216Z,3.97
2022-11-28T00:31:25.474Z,4.07
2022-11-28T00:33:55.365Z,4.07
2022-11-28T00:36:32.334Z,4.00
2022-11-28T00:38:59.393Z,3.90
2022-11-28T00:41:29.304Z,4.07
2022-11-28T00:43:57.283Z,4.17
2022-11-28T00:46:24.831Z,4.41
2022-11-28T00:48:53.147Z,4.43
2022-11-28T00:51:24.291Z,4.21
2022-11-28T00:53:53.248Z,4.09
2022-11-28T00:56:24.028Z,3.98
2022-11-28T00:58:51.593Z,4.37
2022-11-28T01:01:25.117Z,4.09
2022-11-28T01:03:53.672Z,3.87
2022-11-28T01:06:26.636Z,4.10
2022-11-28T01:08:53.587Z,3.85
2022-11-28T01:11:21.739Z,3.93
2022-11-28T01:13:49.434Z,3.76
2022-11-28T01:16:17.294Z,3.85
2022-11-28T01:18:44.227Z,3.76
2022-11-28T01:21:11.366Z,3.71
2022-11-28T01:23:38.449Z,3.65
2022-11-28T01:26:07.945Z,3.82
2022-11-28T01:28:35.910Z,3.81
2022-11-28T01:31:05.123Z,3.90
2022-11-28T01:33:32.021Z,3.75
2022-11-28T01:35:59.934Z,3.74
2022-11-28T01:38:28.266Z,3.79
2022-11-28T01:41:13.433Z,3.90
2022-11-28T01:44:04.366Z,4.33
2022-11-28T01:46:32.413Z,4.13
2022-11-28T01:49:25.044Z,3.99
2022-11-28T01:51:58.396Z,4.16
2022-11-28T01:54:28.420Z,4.06
2022-11-28T01:57:10.613Z,3.93
2022-11-28T01:59:50.021Z,3.90
2022-11-28T02:02:33.029Z,4.15
2022-11-28T02:05:02.229Z,4.16
2022-11-28T02:07:30.843Z,4.34
2022-11-28T02:09:57.903Z,4.16
2022-11-28T02:12:43.352Z,4.40
2022-11-28T02:15:37.576Z,3.88
2022-11-28T02:18:26.180Z,4.36
2022-11-28T02:21:24.307Z,4.16
2022-11-28T02:24:11.226Z,4.15
2022-11-28T02:26:59.191Z,4.41
2022-11-28T02:29:26.075Z,4.16
2022-11-28T02:32:38.581Z,3.92
2022-11-28T02:35:20.104Z,3.94
2022-11-28T02:37:56.467Z,3.99
2022-11-28T02:40:32.348Z,3.74
2022-11-28T02:43:02.172Z,4.02
2022-11-28T02:45:47.657Z,4.04
2022-11-28T02:48:25.235Z,3.74
2022-11-28T02:51:03.986Z,3.81
2022-11-28T02:53:33.277Z,4.24
2022-11-28T02:56:01.067Z,4.07
2022-11-28T02:58:27.940Z,3.94
2022-11-28T03:00:56.050Z,3.92
2022-11-28T03:03:43.376Z,3.67
2022-11-28T03:06:34.306Z,3.49
2022-11-28T03:09:29.024Z,3.63
2022-11-28T03:11:59.278Z,3.52
2022-11-28T03:14:51.249Z,3.75
2022-11-28T03:17:37.032Z,3.78
2022-11-28T03:20:25.340Z,3.58
2022-11-28T03:23:16.594Z,3.59
2022-11-28T03:25:46.356Z,3.57
2022-11-28T03:28:54.532Z,3.78
2022-11-28T03:31:27.738Z,3.72
2022-11-28T03:33:58.618Z,3.96
2022-11-28T03:36:44.156Z,3.98
2022-11-28T03:39:25.112Z,3.52
2022-11-28T03:42:00.236Z,3.96
2022-11-28T03:44:38.025Z,3.97
2022-11-28T03:47:06.731Z,3.88
2022-11-28T03:49:39.900Z,3.84
2022-11-28T03:52:15.476Z,3.60
2022-11-28T03:54:59.613Z,3.44
2022-11-28T03:57:35.667Z,3.60
2022-11-28T04:00:10.940Z,3.92
2022-11-28T04:02:41.578Z,3.69
2022-11-28T04:05:33.151Z,3.55
2022-11-28T04:08:17.160Z,3.51
2022-11-28T04:10:51.127Z,3.49
2022-11-28T04:13:41.402Z,3.60
2022-11-28T04:16:24.443Z,3.93
2022-11-28T04:19:00.462Z,3.62
2022-11-28T04:21:40.366Z,3.93
2022-11-28T04:24:18.716Z,3.80
2022-11-28T04:26:55.158Z,3.75
2022-11-28T04:29:25.995Z,3.59
2022-11-28T04:31:58.615Z,3.97
2022-11-28T04:34:27.218Z,3.76
2022-11-28T04:36:55.433Z,3.58
2022-11-28T04:39:25.652Z,3.43
2022-11-28T04:41:57.793Z,3.56
2022-11-28T04:44:49.180Z,3.64
2022-11-28T04:47:16.270Z,3.70
2022-11-28T04:49:43.074Z,3.60
2022-11-28T04:52:19.437Z,4.01
2022-11-28T04:55:26.897Z,3.90
2022-11-28T04:58:14.939Z,4.00
2022-11-28T05:00:43.723Z,3.82
2022-11-28T05:03:11.294Z,3.83
2022-11-28T05:05:52.354Z,3.81
2022-11-28T05:08:21.572Z,3.93
2022-11-28T05:10:49.804Z,4.07
2022-11-28T05:13:20.196Z,4.06
2022-11-28T05:15:55.654Z,4.15
2022-11-28T05:18:22.889Z,4.28
2022-11-28T05:21:00.492Z,3.98
2022-11-28T05:23:42.540Z,3.60
2022-11-28T05:26:26.782Z,3.60
2022-11-28T05:28:57.480Z,3.66
2022-11-28T05:31:26.454Z,3.66
2022-11-28T05:33:55.354Z,3.76
2022-11-28T05:36:23.136Z,3.83
2022-11-28T05:38:50.391Z,3.82
2022-11-28T05:41:32.795Z,3.64
2022-11-28T05:44:01.305Z,3.68
2022-11-28T05:46:29.560Z,3.85
2022-11-28T05:48:57.423Z,3.98
2022-11-28T05:51:24.994Z,4.16
2022-11-28T05:53:51.892Z,3.99
2022-11-28T05:56:23.188Z,3.76
2022-11-28T05:58:50.617Z,3.90
2022-11-28T06:01:21.376Z,3.87
2022-11-28T06:03:48.396Z,3.87
2022-11-28T06:06:19.486Z,3.86
2022-11-28T06:08:47.783Z,3.73
2022-11-28T06:11:15.613Z,3.88
2022-11-28T06:13:43.936Z,4.08
2022-11-28T06:16:31.879Z,4.43
2022-11-28T06:33:50.079Z,4.14
2022-11-28T06:36:18.749Z,4.05
2022-11-28T06:38:48.172Z,4.04
2022-11-28T06:41:18.185Z,4.09
2022-11-28T06:43:45.163Z,3.97
2022-11-28T06:46:17.102Z,4.41
2022-11-28T06:48:45.403Z,4.38
2022-11-28T06:51:13.683Z,4.22
2022-11-28T06:53:40.992Z,4.63
2022-11-28T06:56:26.768Z,4.33
2022-11-28T06:59:27.177Z,4.36
2022-11-28T07:02:07.614Z,4.31
2022-11-28T07:04:54.529Z,4.39
2022-11-28T07:07:24.875Z,4.69
2022-11-28T07:09:55.074Z,4.51
2022-11-28T07:12:26.837Z,4.21
2022-11-28T07:14:53.852Z,4.36
2022-11-28T07:17:40.398Z,4.66
2022-11-28T08:20:42.768Z,4.89
2022-11-28T08:23:33.463Z,4.99
2022-11-28T08:26:19.533Z,4.80
2022-11-28T08:29:39.655Z,4.93
2022-11-28T08:41:01.023Z,5.16
2022-11-28T08:43:33.430Z,4.96
2022-11-28T08:46:28.707Z,4.97
2022-11-28T08:48:56.019Z,5.26
2022-11-28T08:52:21.117Z,5.16
2022-11-28T08:54:22.359Z,4.93
2022-11-28T08:56:51.512Z,5.01
2022-11-28T08:59:18.403Z,5.05
2022-11-28T09:01:47.795Z,5.09
2022-11-28T09:04:15.116Z,4.86
2022-11-28T09:06:42.360Z,5.09
2022-11-28T09:09:11.851Z,5.40
2022-11-28T09:11:41.696Z,5.44
2022-11-28T09:14:14.945Z,5.76
2022-11-28T09:16:42.226Z,6.00
2022-11-28T09:19:11.046Z,5.79
2022-11-28T09:21:38.016Z,6.04
2022-11-28T09:24:12.829Z,6.38
2022-11-28T09:26:40.238Z,6.14
2022-11-28T09:32:19.370Z,7.24
2022-11-28T09:35:15.521Z,8.14
2022-11-28T09:38:00.476Z,9.17
2022-11-28T09:44:28.151Z,8.54
2022-11-28T09:47:00.632Z,6.92
2022-11-28T09:49:40.424Z,7.74
2022-11-28T09:52:28.958Z,8.04
2022-11-28T09:55:06.433Z,8.18
2022-11-28T09:57:47.378Z,8.52
2022-11-28T10:00:24.458Z,7.50
2022-11-28T10:04:22.064Z,8.47
2022-11-28T11:57:40.536Z,8.60
2022-11-28T12:11:47.191Z,7.63
2022-11-28T12:14:41.712Z,7.76
2022-11-28T12:17:47.766Z,7.71
2022-11-28T12:28:35.342Z,7.38
2022-11-28T12:42:33.086Z,7.37
2022-11-28T16:02:48.007Z,5.83
2022-11-28T17:45:53.827Z,3.70
2022-11-28T18:07:23.672Z,3.19
2022-11-28T18:09:50.584Z,2.77
2022-11-28T18:12:17.630Z,2.93
2022-11-28T18:14:47.221Z,3.02
2022-11-28T18:17:14.250Z,3.00
2022-11-28T18:19:41.357Z,3.22
2022-11-28T18:22:25.016Z,3.08
2022-11-28T18:24:52.025Z,2.85
2022-11-28T18:27:19.368Z,2.72
2022-11-28T18:29:46.563Z,2.93
2022-11-28T18:32:14.797Z,2.80
2022-11-28T18:34:41.761Z,2.97
2022-11-28T18:37:08.809Z,2.78
2022-11-28T18:39:35.754Z,2.58
2022-11-28T18:42:02.628Z,2.73
2022-11-28T18:44:29.663Z,2.72
2022-11-28T18:46:56.429Z,2.73
2022-11-28T18:49:23.473Z,2.48
2022-11-28T18:51:50.510Z,2.52
2022-11-28T18:54:21.086Z,2.61
2022-11-28T18:56:48.962Z,2.42
2022-11-28T18:59:16.094Z,2.35
2022-11-28T19:01:43.315Z,2.64
2022-11-28T19:04:14.463Z,2.43
2022-11-28T19:06:43.247Z,2.60
2022-11-28T19:09:15.635Z,2.56
2022-11-28T19:11:46.067Z,2.58
2022-11-28T19:14:18.692Z,2.55
2022-11-28T19:16:47.323Z,2.53
2022-11-28T19:19:16.473Z,2.61
2022-11-28T19:21:43.979Z,2.45
2022-11-28T19:24:13.270Z,2.43
2022-11-28T19:26:40.254Z,2.54
2022-11-28T19:29:08.024Z,2.37
2022-11-28T19:31:36.954Z,2.36
2022-11-28T19:34:06.309Z,2.03
2022-11-28T19:36:36.029Z,2.08
2022-11-28T19:39:03.870Z,2.19
2022-11-28T19:41:31.391Z,1.82
2022-11-28T19:43:58.849Z,1.80
2022-11-28T19:46:35.002Z,1.76
2022-11-28T19:49:03.714Z,1.43
2022-11-28T19:51:31.043Z,1.59
2022-11-28T19:54:03.259Z,1.62
2022-11-28T19:56:33.953Z,1.62
2022-11-28T19:59:00.882Z,1.68
2022-11-28T20:01:28.316Z,1.48
2022-11-28T20:03:55.551Z,1.46
2022-11-28T20:06:32.741Z,1.57
2022-11-28T20:09:05.809Z,1.59
2022-11-28T20:11:34.627Z,1.50
2022-11-28T20:14:07.300Z,1.75
2022-11-28T20:16:38.626Z,1.68
2022-11-28T20:19:06.728Z,1.68
2022-11-28T20:21:34.315Z,1.70
2022-11-28T20:24:05.416Z,1.58
2022-11-28T20:26:37.839Z,1.87
2022-11-28T20:29:25.992Z,1.92
2022-11-28T20:32:14.946Z,1.99
2022-11-28T20:35:01.991Z,1.79
2022-11-28T20:37:50.175Z,1.85
2022-11-28T20:40:44.987Z,1.65
2022-11-28T20:43:31.992Z,1.68
2022-11-28T20:46:23.281Z,1.96
2022-11-28T20:49:10.640Z,1.65
2022-11-28T20:51:57.764Z,1.75
2022-11-28T20:54:45.107Z,1.76
2022-11-28T20:57:32.092Z,1.86
2022-11-28T20:59:59.226Z,1.53
2022-11-28T21:02:46.079Z,1.63
2022-11-28T21:05:35.599Z,1.68
2022-11-28T21:08:22.661Z,1.38
2022-11-28T21:10:49.877Z,1.59
2022-11-28T21:13:37.303Z,1.67
2022-11-28T21:16:29.322Z,1.60
2022-11-28T21:18:57.021Z,1.50
2022-11-28T21:21:27.427Z,1.41
2022-11-28T21:24:02.838Z,1.43
2022-11-28T21:26:46.627Z,1.68
2022-11-28T21:29:15.563Z,1.40
2022-11-28T21:32:04.721Z,1.34
2022-11-28T21:34:31.865Z,1.52
2022-11-28T21:37:19.083Z,1.47
2022-11-28T21:40:06.043Z,1.48
2022-11-28T21:42:55.836Z,1.54
2022-11-28T21:45:42.770Z,1.42
2022-11-28T21:48:29.721Z,1.53
2022-11-28T21:51:17.893Z,1.44
2022-11-28T21:54:04.971Z,1.23
2022-11-28T21:56:52.152Z,1.48
2022-11-28T21:59:38.823Z,1.55
2022-11-28T22:02:30.600Z,1.12
2022-11-28T22:04:59.219Z,1.17
2022-11-28T22:07:26.085Z,1.37
2022-11-28T22:10:03.265Z,0.86
2022-11-28T22:12:35.770Z,1.32
2022-11-28T22:15:48.884Z,1.22
2022-11-28T22:21:57.004Z,1.09
2022-11-28T22:24:29.665Z,1.24
2022-11-28T22:26:59.777Z,1.03
2022-11-28T22:29:46.949Z,0.87
2022-11-28T22:32:30.707Z,1.15
2022-11-28T22:35:00.185Z,1.02
2022-11-28T22:37:30.068Z,1.10
2022-11-28T22:39:57.250Z,1.29
2022-11-28T22:42:24.170Z,1.01
2022-11-28T22:44:54.516Z,1.07
2022-11-28T22:47:25.279Z,1.27
2022-11-28T22:49:52.336Z,1.35
2022-11-28T22:52:19.456Z,1.25
2022-11-28T22:54:46.764Z,1.19
2022-11-28T22:57:17.004Z,1.10
2022-11-28T22:59:43.827Z,0.92
2022-11-28T23:02:11.365Z,1.02
2022-11-28T23:04:58.471Z,0.90
2022-11-28T23:07:45.552Z,1.15
2022-11-28T23:10:32.603Z,1.16
2022-11-28T23:13:20.713Z,1.18
2022-11-28T23:16:07.528Z,1.05
2022-11-28T23:18:54.780Z,1.01
2022-11-28T23:21:43.728Z,0.77
2022-11-28T23:24:35.565Z,0.75
2022-11-28T23:27:22.524Z,0.79
2022-11-28T23:30:09.913Z,0.67
2022-11-28T23:32:56.964Z,0.79
2022-11-28T23:35:23.925Z,0.77
2022-11-28T23:37:54.217Z,0.67
2022-11-28T23:40:23.467Z,0.56
2022-11-28T23:42:50.415Z,0.81
2022-11-28T23:45:17.427Z,0.67
2022-11-28T23:47:44.361Z,0.82
2022-11-28T23:50:11.569Z,0.56
2022-11-28T23:52:38.756Z,0.89
2022-11-28T23:55:06.335Z,0.88
2022-11-28T23:57:49.826Z,0.70
